Time;durP1;ratioP1;P1;durP2;ratioP2;P2;SDS_P1;SDS_P2;PMS_P1;PMS_P2;Temp;Humidity;BMP_temperature;BMP_pressure;BME280_temperature;BME280_humidity;BME280_pressure;Samples;Min_cycle;Max_cycle;Signal;HPM_P1;HPM_P2
2022/11/20 00:01:20;;;;;;;11.68;7.50;;;8.40;76.00;;;;;;5075402;28;20024;-16
2022/11/20 00:03:47;;;;;;;11.75;6.88;;;8.40;76.00;;;;;;5074010;28;20035;-16
2022/11/20 00:06:16;;;;;;;12.05;7.20;;;8.40;76.00;;;;;;5075105;28;20024;-18
2022/11/20 00:08:42;;;;;;;12.05;7.10;;;8.40;76.10;;;;;;5075100;28;20036;-17
2022/11/20 00:11:17;;;;;;;11.95;6.65;;;8.40;76.10;;;;;;5075073;28;20038;-19
2022/11/20 00:13:44;;;;;;;10.35;6.57;;;8.40;76.10;;;;;;5075568;28;20472;-16
2022/11/20 00:16:12;;;;;;;10.93;6.80;;;8.30;76.10;;;;;;5074837;28;20028;-19
2022/11/20 00:18:38;;;;;;;14.88;8.77;;;8.30;76.10;;;;;;5074821;28;20027;-18
2022/11/20 00:21:10;;;;;;;13.50;8.38;;;8.30;76.10;;;;;;5074774;28;20024;-16
2022/11/20 00:23:36;;;;;;;14.50;8.38;;;8.30;76.10;;;;;;5075222;28;20031;-18
2022/11/20 00:26:08;;;;;;;14.80;8.80;;;8.20;76.10;;;;;;5074864;28;20024;-17
2022/11/20 00:28:34;;;;;;;13.02;8.15;;;8.20;76.20;;;;;;5075387;28;20025;-16
2022/11/20 00:31:08;;;;;;;12.50;7.28;;;8.20;76.20;;;;;;5074357;28;20473;-17
2022/11/20 00:33:35;;;;;;;13.60;8.10;;;8.20;76.30;;;;;;5074934;28;20518;-19
2022/11/20 00:36:04;;;;;;;11.23;6.82;;;8.10;76.30;;;;;;5074896;28;20429;-17
2022/11/20 00:38:32;;;;;;;12.32;7.88;;;8.10;76.30;;;;;;5074918;28;20028;-18
2022/11/20 00:41:02;;;;;;;13.02;7.22;;;8.00;76.30;;;;;;5074217;28;20542;-18
2022/11/20 00:43:28;;;;;;;12.50;7.85;;;8.00;76.40;;;;;;5074765;28;20376;-17
2022/11/20 00:46:03;;;;;;;12.50;8.10;;;8.00;76.50;;;;;;5074170;28;20119;-18
2022/11/20 00:48:29;;;;;;;14.02;8.10;;;8.00;76.60;;;;;;5074686;28;20024;-17
2022/11/20 00:50:56;;;;;;;12.88;8.10;;;7.90;76.60;;;;;;5074267;28;20025;-18
2022/11/20 00:53:22;;;;;;;13.65;7.82;;;7.90;76.70;;;;;;5074496;28;20031;-18
2022/11/20 00:56:03;;;;;;;13.07;7.55;;;7.90;76.70;;;;;;5072950;28;20388;-18
2022/11/20 00:58:32;;;;;;;12.57;6.72;;;7.80;76.80;;;;;;5074076;28;20095;-17
2022/11/20 01:01:18;;;;;;;10.23;6.53;;;7.80;76.80;;;;;;5073793;28;20040;-19
2022/11/20 01:03:48;;;;;;;13.95;6.93;;;7.80;76.80;;;;;;5074366;28;20028;-19
2022/11/20 01:06:17;;;;;;;13.00;7.30;;;7.70;76.80;;;;;;5074153;28;20024;-18
2022/11/20 01:08:44;;;;;;;12.27;6.95;;;7.70;76.90;;;;;;5074243;28;20115;-18
2022/11/20 01:11:13;;;;;;;9.18;5.90;;;7.60;76.90;;;;;;5073679;28;20496;-17
2022/11/20 01:13:41;;;;;;;10.85;6.10;;;7.50;77.00;;;;;;5074131;28;20034;-17
2022/11/20 01:16:22;;;;;;;10.75;6.97;;;7.40;77.20;;;;;;5073708;28;20031;-17
2022/11/20 01:18:51;;;;;;;12.45;7.63;;;7.40;77.40;;;;;;5073921;28;20031;-17
2022/11/20 01:21:20;;;;;;;9.52;5.07;;;7.30;77.50;;;;;;5074000;28;20048;-18
2022/11/20 01:23:47;;;;;;;9.32;5.82;;;7.30;77.60;;;;;;5073857;28;20025;-17
2022/11/20 01:26:16;;;;;;;12.25;6.90;;;7.20;77.80;;;;;;5073883;28;20035;-18
2022/11/20 01:28:42;;;;;;;13.07;7.13;;;7.10;77.80;;;;;;5072997;28;20032;-18
2022/11/20 01:31:27;;;;;;;13.15;7.57;;;7.10;77.80;;;;;;5071974;28;20102;-18
2022/11/20 01:33:55;;;;;;;13.07;8.10;;;7.00;77.80;;;;;;5073521;28;20061;-19
2022/11/20 01:36:24;;;;;;;13.15;7.63;;;6.90;78.10;;;;;;5073741;28;20103;-19
2022/11/20 01:38:58;;;;;;;14.43;8.73;;;6.80;78.20;;;;;;5073676;28;20032;-17
2022/11/20 01:44:14;;;;;;;12.35;7.35;;;6.60;78.50;;;;;;5073438;28;20099;-18
2022/11/20 01:46:59;;;;;;;13.10;7.63;;;6.50;78.70;;;;;;5073624;28;20162;-16
2022/11/20 01:49:28;;;;;;;;;;;6.50;78.80;;;;;;5074252;28;20082;-17
2022/11/20 01:52:03;;;;;;;14.32;7.25;;;6.40;78.80;;;;;;5073416;28;19912;-16
2022/11/20 01:54:37;;;;;;;12.38;7.70;;;6.30;78.90;;;;;;5074137;28;20020;-18
2022/11/20 01:57:07;;;;;;;14.52;7.68;;;6.30;79.00;;;;;;5073427;28;20044;-18
2022/11/20 01:59:36;;;;;;;13.20;8.32;;;6.20;79.10;;;;;;5072933;28;20401;-19
2022/11/20 02:02:01;;;;;;;15.85;8.32;;;6.20;79.10;;;;;;5073597;28;20464;-18
2022/11/20 02:04:27;;;;;;;12.82;7.40;;;6.10;79.10;;;;;;5073462;28;20039;-18
2022/11/20 02:07:01;;;;;;;12.55;7.07;;;6.00;79.30;;;;;;5072831;28;20094;-17
2022/11/20 02:09:28;;;;;;;14.80;9.52;;;6.00;79.40;;;;;;5073079;28;20032;-17
2022/11/20 02:11:55;;;;;;;13.85;8.63;;;5.90;79.60;;;;;;5072943;28;20419;-19
2022/11/20 02:14:22;;;;;;;12.85;7.70;;;5.90;79.40;;;;;;5073299;28;20400;-17
2022/11/20 02:16:49;;;;;;;12.32;7.57;;;5.80;79.50;;;;;;5073004;28;20040;-18
2022/11/20 02:19:35;;;;;;;9.27;5.75;;;5.80;79.70;;;;;;5072986;28;20031;-18
2022/11/20 02:22:11;;;;;;;16.90;9.82;;;5.70;79.80;;;;;;5072855;28;20040;-18
2022/11/20 02:24:37;;;;;;;18.63;9.80;;;5.70;79.90;;;;;;5073017;28;20024;-18
2022/11/20 02:27:13;;;;;;;16.13;10.40;;;5.70;79.90;;;;;;5072664;28;20039;-18
2022/11/20 02:29:53;;;;;;;14.27;8.90;;;5.60;80.00;;;;;;5071704;28;20032;-18
2022/11/20 02:32:31;;;;;;;17.02;9.10;;;5.60;80.00;;;;;;5072687;28;20052;-18
2022/11/20 02:34:56;;;;;;;15.45;9.65;;;5.60;80.10;;;;;;5072625;28;20028;-16
2022/11/20 02:37:29;;;;;;;16.63;9.50;;;5.50;80.20;;;;;;5072736;28;20115;-17
2022/11/20 02:39:55;;;;;;;16.08;8.82;;;5.50;80.20;;;;;;5073891;28;20032;-18
2022/11/20 02:42:21;;;;;;;14.60;9.00;;;5.50;80.30;;;;;;5077027;28;20465;-18
2022/11/20 02:44:47;;;;;;;14.48;9.18;;;5.50;80.50;;;;;;5076786;28;20036;-18
2022/11/20 02:47:13;;;;;;;14.93;9.52;;;5.50;80.60;;;;;;5076603;28;20365;-19
2022/11/20 02:49:39;;;;;;;16.40;9.43;;;5.50;80.70;;;;;;5076900;28;20031;-19
2022/11/20 02:52:05;;;;;;;13.35;7.47;;;5.40;80.60;;;;;;5077200;28;20564;-19
2022/11/20 02:54:31;;;;;;;14.27;8.93;;;5.40;80.60;;;;;;5076755;28;20527;-18
2022/11/20 02:56:57;;;;;;;15.13;8.45;;;5.40;80.60;;;;;;5076547;28;20025;-17
2022/11/20 02:59:23;;;;;;;15.00;8.65;;;5.40;80.70;;;;;;5076301;28;20156;-18
2022/11/20 03:01:49;;;;;;;15.15;8.75;;;5.40;80.60;;;;;;5077153;28;20029;-19
2022/11/20 03:04:15;;;;;;;15.77;8.57;;;5.40;80.80;;;;;;5076644;28;20017;-17
2022/11/20 03:06:41;;;;;;;16.00;9.32;;;5.40;80.80;;;;;;5076257;28;20051;-18
2022/11/20 03:09:07;;;;;;;13.45;7.82;;;5.40;80.80;;;;;;5076355;28;20116;-18
2022/11/20 03:11:33;;;;;;;14.68;9.25;;;5.40;80.90;;;;;;5074897;28;20377;-17
2022/11/20 03:14:03;;;;;;;13.85;8.43;;;5.30;80.70;;;;;;5076484;28;20174;-18
2022/11/20 03:16:30;;;;;;;15.65;9.20;;;5.40;80.80;;;;;;5076064;28;20017;-18
2022/11/20 03:18:57;;;;;;;15.73;9.07;;;5.30;81.00;;;;;;5076147;28;20186;-19
2022/11/20 03:21:22;;;;;;;12.98;8.50;;;5.20;80.90;;;;;;5076012;28;20021;-16
2022/11/20 03:23:48;;;;;;;15.90;9.07;;;5.20;80.90;;;;;;5075034;28;20039;-19
2022/11/20 03:26:18;;;;;;;14.65;7.90;;;5.10;80.90;;;;;;5076245;28;20032;-18
2022/11/20 03:28:49;;;;;;;16.40;9.90;;;5.00;81.00;;;;;;5075946;28;20025;-17
2022/11/20 03:31:17;;;;;;;14.68;8.38;;;5.00;81.10;;;;;;5075829;28;20135;-18
2022/11/20 03:33:43;;;;;;;14.45;8.02;;;4.90;81.10;;;;;;5076142;28;20031;-17
2022/11/20 03:36:12;;;;;;;13.15;7.97;;;4.90;81.20;;;;;;5075755;28;20512;-18
2022/11/20 03:38:39;;;;;;;9.73;5.93;;;4.90;81.30;;;;;;5075670;28;20036;-18
2022/11/20 03:41:08;;;;;;;13.35;7.95;;;4.90;81.40;;;;;;5075748;28;20416;-19
2022/11/20 03:43:35;;;;;;;12.02;6.85;;;4.90;81.50;;;;;;5075640;28;20036;-17
2022/11/20 03:46:02;;;;;;;10.90;7.10;;;4.90;81.50;;;;;;5075808;28;20070;-18
2022/11/20 03:48:28;;;;;;;11.55;6.43;;;4.80;81.40;;;;;;5075640;28;20031;-18
2022/11/20 03:51:11;;;;;;;10.57;5.53;;;4.80;81.40;;;;;;5075351;28;20035;-18
2022/11/20 03:53:38;;;;;;;15.30;7.93;;;4.70;81.30;;;;;;5075307;28;20028;-17
2022/11/20 03:56:04;;;;;;;9.00;5.53;;;4.70;81.30;;;;;;5075738;28;20032;-19
2022/11/20 03:58:30;;;;;;;13.05;8.07;;;4.60;81.30;;;;;;5075122;28;20055;-18
2022/11/20 04:00:57;;;;;;;12.55;6.72;;;4.60;81.40;;;;;;5075222;28;20025;-18
2022/11/20 04:03:23;;;;;;;11.93;6.07;;;4.60;81.40;;;;;;5075189;28;20388;-18
2022/11/20 04:05:49;;;;;;;12.98;7.22;;;4.60;81.50;;;;;;5075563;28;20025;-19
2022/11/20 04:08:14;;;;;;;12.93;7.72;;;4.50;81.50;;;;;;5075515;28;20032;-19
2022/11/20 04:10:41;;;;;;;14.10;7.70;;;4.50;81.60;;;;;;5075355;28;20032;-19
2022/11/20 04:13:07;;;;;;;14.98;7.43;;;4.40;81.60;;;;;;5075085;28;20051;-18
2022/11/20 04:15:33;;;;;;;13.75;8.23;;;4.40;81.60;;;;;;5075041;28;20028;-17
2022/11/20 04:17:59;;;;;;;12.32;7.30;;;4.40;81.90;;;;;;5074872;28;20032;-17
2022/11/20 04:20:24;;;;;;;10.65;6.32;;;4.40;81.90;;;;;;5074875;28;20120;-19
2022/11/20 04:22:54;;;;;;;13.95;8.80;;;4.40;81.90;;;;;;5074853;28;20034;-19
2022/11/20 04:25:20;;;;;;;15.48;9.88;;;4.40;81.80;;;;;;5075166;28;20033;-18
2022/11/20 04:27:46;;;;;;;16.83;8.70;;;4.40;81.90;;;;;;5074768;28;20392;-18
2022/11/20 04:30:12;;;;;;;14.82;8.18;;;4.40;81.90;;;;;;5074757;28;20025;-18
2022/11/20 04:32:38;;;;;;;17.25;8.23;;;4.40;82.00;;;;;;5074392;28;20052;-18
2022/11/20 04:35:04;;;;;;;13.82;8.23;;;4.40;82.00;;;;;;5074451;28;20038;-19
2022/11/20 04:37:30;;;;;;;13.63;7.75;;;4.40;82.00;;;;;;5074595;28;20477;-18
2022/11/20 04:39:56;;;;;;;12.70;7.60;;;4.50;82.10;;;;;;5074502;28;20036;-18
2022/11/20 04:42:28;;;;;;;13.15;6.85;;;4.50;82.00;;;;;;5074808;28;20028;-19
2022/11/20 04:44:55;;;;;;;12.50;7.28;;;4.50;82.00;;;;;;5074574;28;20047;-18
2022/11/20 04:47:22;;;;;;;12.38;7.10;;;4.60;82.00;;;;;;5074292;28;20445;-18
2022/11/20 04:49:48;;;;;;;13.60;7.40;;;4.60;81.90;;;;;;5074486;28;20025;-18
2022/11/20 04:52:14;;;;;;;11.20;6.80;;;4.60;82.00;;;;;;5074575;28;20098;-18
2022/11/20 04:54:40;;;;;;;13.18;7.25;;;4.70;81.90;;;;;;5074291;28;20074;-18
2022/11/20 04:57:05;;;;;;;13.60;7.28;;;4.70;82.20;;;;;;5073969;28;20024;-19
2022/11/20 04:59:31;;;;;;;15.05;7.72;;;4.70;82.10;;;;;;5072879;28;20075;-18
2022/11/20 05:01:57;;;;;;;17.02;8.15;;;4.80;81.80;;;;;;5074378;28;20430;-19
2022/11/20 05:04:23;;;;;;;15.90;7.65;;;4.80;81.80;;;;;;5074191;28;20578;-18
2022/11/20 05:06:50;;;;;;;14.63;7.03;;;4.80;81.60;;;;;;5073805;28;20025;-19
2022/11/20 05:09:16;;;;;;;13.35;7.32;;;4.80;81.70;;;;;;5073906;28;20028;-17
2022/11/20 05:11:42;;;;;;;11.75;6.75;;;4.80;81.70;;;;;;5073852;28;20047;-17
2022/11/20 05:14:07;;;;;;;12.35;7.18;;;4.80;81.60;;;;;;5074456;28;20024;-18
2022/11/20 05:16:35;;;;;;;15.07;6.90;;;4.80;81.70;;;;;;5073668;28;20028;-18
2022/11/20 05:19:02;;;;;;;13.98;7.78;;;4.80;81.80;;;;;;5073530;28;20032;-19
2022/11/20 05:21:30;;;;;;;10.75;6.07;;;4.90;82.10;;;;;;5074013;28;20024;-19
2022/11/20 05:23:56;;;;;;;11.82;7.03;;;4.80;82.20;;;;;;5073950;28;20028;-17
2022/11/20 05:26:23;;;;;;;15.75;7.70;;;4.80;81.90;;;;;;5073805;28;20392;-18
2022/11/20 05:28:50;;;;;;;12.80;7.15;;;4.80;81.90;;;;;;5073703;28;20024;-17
2022/11/20 05:31:20;;;;;;;11.68;7.10;;;4.80;81.80;;;;;;5072104;28;20032;-18
2022/11/20 05:33:46;;;;;;;10.27;6.50;;;4.80;82.00;;;;;;5073905;28;20102;-18
2022/11/20 05:36:14;;;;;;;15.10;7.80;;;4.80;81.90;;;;;;5073816;28;20067;-18
2022/11/20 05:38:41;;;;;;;9.40;5.35;;;4.80;81.90;;;;;;5073584;28;20035;-18
2022/11/20 05:41:14;;;;;;;13.80;7.38;;;4.80;81.90;;;;;;5073320;28;20035;-18
2022/11/20 05:43:42;;;;;;;10.65;6.38;;;4.80;81.90;;;;;;5073834;28;20103;-18
2022/11/20 05:46:10;;;;;;;10.35;5.85;;;4.90;81.90;;;;;;5073746;28;20074;-17
2022/11/20 05:48:37;;;;;;;14.45;8.05;;;4.80;81.90;;;;;;5073238;28;20025;-17
2022/11/20 05:51:06;;;;;;;14.88;7.75;;;4.90;82.00;;;;;;5072928;28;20029;-19
2022/11/20 05:53:33;;;;;;;12.52;7.05;;;4.90;82.00;;;;;;5073676;28;20028;-18
2022/11/20 05:56:05;;;;;;;12.55;7.13;;;4.80;81.80;;;;;;5073813;28;20024;-19
2022/11/20 05:58:32;;;;;;;13.48;7.25;;;4.80;81.80;;;;;;5073236;28;20124;-16
2022/11/20 06:01:07;;;;;;;12.00;7.18;;;4.80;81.90;;;;;;5072959;28;20024;-19
2022/11/20 06:03:33;;;;;;;12.43;7.32;;;4.80;81.90;;;;;;5073399;28;20066;-17
2022/11/20 06:06:00;;;;;;;13.45;7.00;;;4.80;81.90;;;;;;5073132;28;20427;-17
2022/11/20 06:08:26;;;;;;;10.40;6.75;;;4.90;82.00;;;;;;5073104;28;20025;-19
2022/11/20 06:10:52;;;;;;;10.38;7.05;;;4.80;81.90;;;;;;5072860;28;20036;-17
2022/11/20 06:13:17;;;;;;;14.15;7.43;;;4.90;81.90;;;;;;5073220;28;20060;-17
2022/11/20 06:15:52;;;;;;;11.45;6.90;;;4.90;81.90;;;;;;5072486;28;20024;-16
2022/11/20 06:18:18;;;;;;;13.43;6.80;;;4.80;81.80;;;;;;5072959;28;20063;-18
2022/11/20 06:20:45;;;;;;;11.00;6.35;;;4.80;81.80;;;;;;5073142;28;20456;-19
2022/11/20 06:23:12;;;;;;;11.20;6.30;;;4.70;81.90;;;;;;5071485;28;20400;-18
2022/11/20 06:25:40;;;;;;;11.55;6.93;;;4.70;82.00;;;;;;5073197;28;20032;-19
2022/11/20 06:28:06;;;;;;;11.57;6.28;;;4.70;82.00;;;;;;5072908;28;20507;-19
2022/11/20 06:30:32;;;;;;;12.32;7.28;;;4.70;82.10;;;;;;5073421;28;20025;-18
2022/11/20 06:32:58;;;;;;;11.75;6.55;;;4.70;82.10;;;;;;5073406;28;20028;-19
2022/11/20 06:35:24;;;;;;;12.38;6.78;;;4.70;82.10;;;;;;5073148;28;20025;-18
2022/11/20 06:37:50;;;;;;;12.38;6.97;;;4.70;82.10;;;;;;5073430;28;20469;-18
2022/11/20 06:40:16;;;;;;;14.20;6.63;;;4.80;82.20;;;;;;5073035;28;20028;-19
2022/11/20 06:42:42;;;;;;;13.75;7.30;;;4.70;82.10;;;;;;5073307;28;20063;-18
2022/11/20 06:45:09;;;;;;;13.70;7.35;;;4.70;82.00;;;;;;5072543;28;20040;-18
2022/11/20 06:47:35;;;;;;;13.50;7.93;;;4.70;82.00;;;;;;5072827;28;20031;-18
2022/11/20 06:50:01;;;;;;;15.05;8.30;;;4.70;82.10;;;;;;5072756;28;20017;-18
2022/11/20 06:52:27;;;;;;;14.98;7.90;;;4.70;82.10;;;;;;5072643;28;20037;-18
2022/11/20 06:54:53;;;;;;;12.23;6.80;;;4.80;82.10;;;;;;5072901;28;20115;-18
2022/11/20 06:57:18;;;;;;;12.07;6.82;;;4.80;82.10;;;;;;5072492;28;20396;-18
2022/11/20 06:59:44;;;;;;;14.63;7.25;;;4.80;82.10;;;;;;5071181;28;20048;-18
2022/11/20 07:02:13;;;;;;;11.40;6.80;;;4.80;82.10;;;;;;5072533;28;20028;-18
2022/11/20 07:04:39;;;;;;;13.25;7.28;;;4.80;82.00;;;;;;5072662;28;20028;-19
2022/11/20 07:07:08;;;;;;;8.60;5.18;;;4.90;82.00;;;;;;5072649;28;20025;-18
2022/11/20 07:09:34;;;;;;;10.02;5.53;;;4.90;81.90;;;;;;5072534;28;20035;-18
2022/11/20 07:12:00;;;;;;;10.55;6.10;;;4.90;81.90;;;;;;5072395;28;20040;-19
2022/11/20 07:14:26;;;;;;;10.15;5.90;;;4.90;81.90;;;;;;5072584;28;20182;-19
2022/11/20 07:16:52;;;;;;;12.75;5.78;;;4.90;81.80;;;;;;5072704;28;20210;-19
2022/11/20 07:19:18;;;;;;;10.05;5.82;;;4.90;81.70;;;;;;5072433;28;20082;-19
2022/11/20 07:21:44;;;;;;;8.38;4.70;;;4.90;81.70;;;;;;5072562;28;20017;-18
2022/11/20 07:24:10;;;;;;;12.55;5.35;;;4.90;81.70;;;;;;5072696;28;20029;-19
2022/11/20 07:26:36;;;;;;;17.90;8.30;;;4.90;81.80;;;;;;5072734;28;20407;-18
2022/11/20 07:29:02;;;;;;;14.75;6.53;;;5.00;81.80;;;;;;5075962;28;20078;-19
2022/11/20 07:31:28;;;;;;;12.63;7.07;;;5.10;81.70;;;;;;5076024;28;20127;-19
2022/11/20 07:33:54;;;;;;;11.75;7.18;;;5.10;81.60;;;;;;5075829;28;20478;-19
2022/11/20 07:36:20;;;;;;;12.18;6.88;;;5.20;81.50;;;;;;5076101;28;20024;-18
2022/11/20 07:38:46;;;;;;;12.23;6.80;;;5.20;81.40;;;;;;5075903;28;20027;-18
2022/11/20 07:41:12;;;;;;;13.98;8.30;;;5.20;81.40;;;;;;5075549;28;20550;-18
2022/11/20 07:43:37;;;;;;;16.63;8.73;;;5.30;81.30;;;;;;5075618;28;20060;-19
2022/11/20 07:46:04;;;;;;;17.20;8.40;;;5.40;81.10;;;;;;5076335;28;20027;-18
2022/11/20 07:48:30;;;;;;;15.02;8.88;;;5.50;80.90;;;;;;5075596;28;20082;-18
2022/11/20 07:50:56;;;;;;;16.58;8.98;;;5.60;80.80;;;;;;5075621;28;20020;-19
2022/11/20 07:53:23;;;;;;;12.80;7.88;;;5.70;80.50;;;;;;5075958;28;20071;-19
2022/11/20 07:55:52;;;;;;;13.70;7.80;;;5.90;80.40;;;;;;5074533;28;20073;-19
2022/11/20 07:58:19;;;;;;;12.63;6.90;;;5.90;80.30;;;;;;5075408;28;20075;-17
2022/11/20 08:00:46;;;;;;;13.52;7.20;;;6.00;80.30;;;;;;5075352;28;20357;-18
2022/11/20 08:03:12;;;;;;;10.27;6.45;;;6.10;80.00;;;;;;5073728;28;20052;-18
2022/11/20 08:05:37;;;;;;;12.52;6.75;;;6.20;79.80;;;;;;5075655;28;20056;-18
2022/11/20 08:08:04;;;;;;;12.68;6.82;;;6.30;79.60;;;;;;5076057;28;20017;-18
2022/11/20 08:10:30;;;;;;;11.10;6.53;;;6.40;79.50;;;;;;5075304;28;20074;-18
2022/11/20 08:15:40;;;;;;;11.05;6.47;;;6.60;79.40;;;;;;5075424;28;20032;-19
2022/11/20 08:18:11;;;;;;;12.75;7.10;;;6.70;79.20;;;;;;5075198;28;20024;-19
2022/11/20 08:20:38;;;;;;;12.73;6.78;;;6.80;79.00;;;;;;5074976;28;20040;-18
2022/11/20 08:23:05;;;;;;;15.02;8.48;;;6.90;78.90;;;;;;5074814;28;20469;-19
2022/11/20 08:25:33;;;;;;;18.00;8.43;;;7.10;78.60;;;;;;5073574;28;20476;-19
2022/11/20 08:28:00;;;;;;;14.85;7.70;;;7.30;78.50;;;;;;5074762;28;20028;-19
2022/11/20 08:30:27;;;;;;;12.93;7.50;;;7.40;78.20;;;;;;5075081;28;20032;-17
2022/11/20 08:32:54;;;;;;;10.45;6.60;;;7.60;78.10;;;;;;5074481;28;20048;-16
2022/11/20 08:35:21;;;;;;;10.45;6.75;;;7.90;77.90;;;;;;5074998;28;20031;-19
2022/11/20 08:37:48;;;;;;;13.00;7.22;;;8.10;77.60;;;;;;5074589;28;20102;-18
2022/11/20 08:40:15;;;;;;;11.10;6.43;;;8.30;77.20;;;;;;5074587;28;20119;-18
2022/11/20 08:42:51;;;;;;;11.27;6.35;;;8.60;77.20;;;;;;5074849;28;20028;-18
2022/11/20 08:45:19;;;;;;;10.13;5.78;;;8.80;76.90;;;;;;5074513;28;20107;-19
2022/11/20 08:47:46;;;;;;;10.52;6.20;;;9.10;76.70;;;;;;5074631;28;20055;-18
2022/11/20 08:50:15;;;;;;;9.85;6.15;;;9.40;76.50;;;;;;5074363;28;20480;-18
2022/11/20 08:52:41;;;;;;;8.48;5.53;;;9.70;76.40;;;;;;5074440;28;20456;-19
2022/11/20 08:55:08;;;;;;;7.97;4.88;;;9.90;76.00;;;;;;5074379;28;20043;-19
2022/11/20 08:57:36;;;;;;;9.68;5.30;;;10.30;75.70;;;;;;5074514;28;20063;-19
2022/11/20 09:00:05;;;;;;;8.65;5.25;;;10.60;75.20;;;;;;5074032;28;20047;-16
2022/11/20 09:02:32;;;;;;;9.20;4.45;;;10.90;75.00;;;;;;5073874;28;20124;-18
2022/11/20 09:04:58;;;;;;;8.02;4.15;;;11.30;74.70;;;;;;5073864;28;20514;-18
2022/11/20 09:07:24;;;;;;;6.93;3.90;;;11.60;74.10;;;;;;5074266;28;20025;-17
2022/11/20 09:09:50;;;;;;;6.32;3.60;;;11.90;73.30;;;;;;5073991;28;20027;-17
2022/11/20 09:12:16;;;;;;;7.78;4.30;;;12.20;73.00;;;;;;5073846;28;20119;-17
2022/11/20 09:14:42;;;;;;;7.93;4.45;;;12.50;72.30;;;;;;5074175;28;20029;-18
2022/11/20 09:17:09;;;;;;;5.47;3.80;;;12.80;72.20;;;;;;5073791;28;20056;-18
2022/11/20 09:19:35;;;;;;;6.03;3.50;;;13.00;71.50;;;;;;5073978;28;20107;-17
2022/11/20 09:22:01;;;;;;;7.15;3.90;;;13.20;71.60;;;;;;5074074;28;20108;-16
2022/11/20 09:24:27;;;;;;;6.22;3.67;;;13.50;71.00;;;;;;5074044;28;20031;-16
2022/11/20 09:26:53;;;;;;;5.93;3.53;;;13.60;71.20;;;;;;5073560;28;20585;-16
2022/11/20 09:29:19;;;;;;;6.38;3.85;;;13.90;70.10;;;;;;5073509;28;20116;-16
2022/11/20 09:31:45;;;;;;;5.40;3.38;;;13.90;69.80;;;;;;5074027;28;20043;-15
2022/11/20 09:34:11;;;;;;;7.15;3.30;;;14.10;69.80;;;;;;5073885;28;20031;-16
2022/11/20 09:36:37;;;;;;;5.97;3.42;;;14.10;69.40;;;;;;5073742;28;20384;-15
2022/11/20 09:39:03;;;;;;;4.78;3.25;;;14.20;69.50;;;;;;5073509;28;20078;-17
2022/11/20 09:41:28;;;;;;;5.03;2.75;;;14.30;69.30;;;;;;5073659;28;20030;-17
2022/11/20 09:44:23;;;;;;;3.38;2.40;;;14.50;69.40;;;;;;5073400;28;20029;-15
2022/11/20 09:46:51;;;;;;;;;;;14.90;66.30;;;;;;5069502;28;20035;-16
2022/11/20 09:49:28;;;;;;;4.30;2.50;;;15.40;64.20;;;;;;5072925;28;19991;-16
2022/11/20 09:51:58;;;;;;;3.95;2.70;;;15.70;63.90;;;;;;5073246;28;20040;-16
2022/11/20 09:54:35;;;;;;;3.67;2.35;;;16.10;62.40;;;;;;5073818;28;20023;-16
2022/11/20 09:57:11;;;;;;;2.67;2.03;;;16.50;59.70;;;;;;5073153;28;20108;-18
2022/11/20 09:59:42;;;;;;;4.45;2.25;;;16.80;58.70;;;;;;5073138;28;20416;-17
2022/11/20 10:02:39;;;;;;;5.03;2.35;;;17.20;57.00;;;;;;5073356;28;20020;-16
2022/11/20 10:05:27;;;;;;;2.47;1.48;;;17.50;54.00;;;;;;5063868;28;20048;-16
2022/11/20 10:08:21;;;;;;;4.35;2.15;;;17.70;54.20;;;;;;5073392;28;20472;-17
2022/11/20 10:10:54;;;;;;;3.33;2.08;;;17.90;53.40;;;;;;5073179;28;20040;-16
2022/11/20 10:13:38;;;;;;;5.85;2.55;;;18.00;52.50;;;;;;5073080;28;20492;-16
2022/11/20 10:16:22;;;;;;;4.85;2.40;;;18.20;52.30;;;;;;5073336;28;20074;-16
2022/11/20 10:19:09;;;;;;;2.75;1.90;;;18.20;53.60;;;;;;5072834;28;20036;-16
2022/11/20 10:21:53;;;;;;;3.42;2.00;;;18.20;52.90;;;;;;5072851;28;20024;-16
2022/11/20 10:24:56;;;;;;;5.43;1.90;;;18.50;52.20;;;;;;5073312;28;20060;-16
2022/11/20 10:27:39;;;;;;;7.03;2.83;;;18.60;52.70;;;;;;5073273;28;20032;-15
2022/11/20 10:30:08;;;;;;;3.75;2.70;;;18.60;52.20;;;;;;5073890;28;20028;-15
2022/11/20 10:32:42;;;;;;;5.53;2.97;;;18.60;53.00;;;;;;5073044;28;20026;-16
2022/11/20 10:35:17;;;;;;;6.90;3.50;;;18.50;53.50;;;;;;5072811;28;20020;-16
2022/11/20 10:37:46;;;;;;;4.78;2.80;;;18.60;52.40;;;;;;5072916;28;20021;-16
2022/11/20 10:40:26;;;;;;;3.25;1.88;;;18.70;52.60;;;;;;5073171;28;20048;-14
2022/11/20 10:43:01;;;;;;;5.80;2.30;;;18.80;51.20;;;;;;5072634;28;20507;-16
2022/11/20 10:45:27;;;;;;;5.03;1.70;;;18.90;51.70;;;;;;5072775;28;20101;-17
2022/11/20 10:48:21;;;;;;;2.45;1.63;;;19.10;49.70;;;;;;5072829;28;20024;-15
2022/11/20 10:51:04;;;;;;;5.80;2.20;;;19.30;49.70;;;;;;5072809;28;20035;-24
2022/11/20 10:53:56;;;;;;;5.45;2.33;;;19.60;50.20;;;;;;5072726;28;20097;-16
2022/11/20 10:56:41;;;;;;;5.50;2.53;;;19.90;48.70;;;;;;5072680;28;20112;-16
2022/11/20 10:59:44;;;;;;;3.78;1.88;;;20.10;48.70;;;;;;5072192;28;20174;-16
2022/11/20 11:02:30;;;;;;;3.95;2.22;;;20.20;48.40;;;;;;5075684;28;20484;-16
2022/11/20 11:04:57;;;;;;;5.55;2.28;;;20.30;47.30;;;;;;5076426;28;20087;-16
2022/11/20 11:07:39;;;;;;;3.78;2.08;;;20.40;46.90;;;;;;5076362;28;20028;-15
2022/11/20 11:10:22;;;;;;;4.47;2.00;;;20.50;47.40;;;;;;5076550;28;20120;-15
2022/11/20 11:12:49;;;;;;;3.97;2.25;;;20.70;47.80;;;;;;5074834;28;20048;-15
2022/11/20 11:15:26;;;;;;;5.50;2.60;;;20.90;46.40;;;;;;5076270;28;20090;-14
2022/11/20 11:17:52;;;;;;;3.88;2.08;;;20.90;46.90;;;;;;5076363;28;20025;-15
2022/11/20 11:20:22;;;;;;;2.38;2.00;;;21.10;45.10;;;;;;5076565;28;20081;-18
2022/11/20 11:22:54;;;;;;;5.40;2.20;;;21.30;43.50;;;;;;5076210;28;20032;-16
2022/11/20 11:25:35;;;;;;;5.63;2.10;;;21.30;43.20;;;;;;5076587;28;20059;-15
2022/11/20 11:28:04;;;;;;;3.67;2.00;;;21.20;44.10;;;;;;5076153;28;20404;-15
2022/11/20 11:30:42;;;;;;;5.03;1.92;;;21.30;43.90;;;;;;5076059;28;20035;-14
2022/11/20 11:33:18;;;;;;;4.80;1.92;;;21.30;44.60;;;;;;5075809;28;20041;-16
2022/11/20 11:36:02;;;;;;;6.22;2.20;;;21.40;44.80;;;;;;5076231;28;20031;-16
2022/11/20 11:38:35;;;;;;;;;;;21.40;45.00;;;;;;5076574;28;20044;-16
2022/11/20 11:41:04;;;;;;;4.30;1.70;;;21.40;44.30;;;;;;5075485;28;19911;-16
2022/11/20 11:46:20;;;;;;;4.05;1.90;;;21.50;43.90;;;;;;5075978;28;20040;-16
2022/11/20 11:48:58;;;;;;;2.95;1.60;;;21.60;44.00;;;;;;5075524;28;20112;-18
2022/11/20 11:51:31;;;;;;;2.83;1.70;;;21.60;43.40;;;;;;5075446;28;20028;-16
2022/11/20 11:54:00;;;;;;;3.20;1.80;;;21.60;43.90;;;;;;5075912;28;20380;-17
2022/11/20 11:56:28;;;;;;;3.40;1.80;;;21.50;44.40;;;;;;5075419;28;20024;-16
2022/11/20 11:59:02;;;;;;;3.75;1.70;;;21.50;43.80;;;;;;5074995;28;20044;-18
2022/11/20 12:01:30;;;;;;;;;;;21.50;42.90;;;;;;5075744;28;20027;-18
2022/11/20 12:04:11;;;;;;;2.60;1.58;;;21.40;42.70;;;;;;5075672;28;19912;-17
2022/11/20 12:06:39;;;;;;;3.90;1.70;;;21.40;43.30;;;;;;5075542;28;20446;-15
2022/11/20 12:09:10;;;;;;;4.28;1.50;;;21.50;43.10;;;;;;5073713;28;20523;-16
2022/11/20 12:11:44;;;;;;;1.95;1.25;;;21.40;43.50;;;;;;5075151;28;20043;-16
2022/11/20 12:14:14;;;;;;;2.83;1.55;;;21.30;43.80;;;;;;5074649;28;20031;-16
2022/11/20 12:16:40;;;;;;;3.83;1.40;;;21.40;44.10;;;;;;5075608;28;20522;-18
2022/11/20 12:19:14;;;;;;;4.25;1.58;;;21.40;43.90;;;;;;5075143;28;20036;-16
2022/11/20 12:21:59;;;;;;;4.43;2.33;;;21.40;43.90;;;;;;5075356;28;20054;-16
2022/11/20 12:24:36;;;;;;;2.95;1.50;;;21.40;44.20;;;;;;5074949;28;20032;-15
2022/11/20 12:27:21;;;;;;;2.55;1.70;;;21.30;43.20;;;;;;5074985;28;20025;-17
2022/11/20 12:29:58;;;;;;;4.97;1.63;;;21.20;43.10;;;;;;5075133;28;20060;-16
2022/11/20 12:33:03;;;;;;;2.10;1.52;;;21.10;42.70;;;;;;5074915;28;20388;-16
2022/11/20 12:35:37;;;;;;;2.80;1.40;;;21.20;43.20;;;;;;5073864;28;20530;-15
2022/11/20 12:38:15;;;;;;;2.83;1.58;;;21.30;42.30;;;;;;5074781;28;20032;-16
2022/11/20 12:40:44;;;;;;;2.20;1.40;;;21.40;42.10;;;;;;5074591;28;20039;-16
2022/11/20 12:46:10;;;;;;;1.67;1.30;;;21.40;43.30;;;;;;5074834;28;20075;-16
2022/11/20 12:49:02;;;;;;;3.35;1.45;;;21.50;43.10;;;;;;5074434;28;20032;-15
2022/11/20 12:51:35;;;;;;;4.65;1.52;;;21.40;41.30;;;;;;5065719;28;20086;-15
2022/11/20 12:54:06;;;;;;;2.05;1.42;;;21.30;41.10;;;;;;5074426;28;20024;-15
2022/11/20 12:56:39;;;;;;;2.28;1.40;;;21.10;41.80;;;;;;5074290;28;20054;-16
2022/11/20 12:59:32;;;;;;;1.77;1.42;;;21.10;42.20;;;;;;5073782;28;20500;-16
2022/11/20 13:02:19;;;;;;;4.53;1.65;;;21.20;41.80;;;;;;5074384;28;20032;-16
2022/11/20 13:05:15;;;;;;;1.65;1.20;;;21.20;41.60;;;;;;5074330;28;20375;-16
2022/11/20 13:07:43;;;;;;;3.15;1.60;;;21.10;42.00;;;;;;5074051;28;20026;-16
2022/11/20 13:10:36;;;;;;;3.83;1.58;;;21.10;42.90;;;;;;5074046;28;20108;-15
2022/11/20 13:13:16;;;;;;;2.38;1.58;;;21.10;43.40;;;;;;5074025;28;20173;-16
2022/11/20 13:15:50;;;;;;;2.97;1.40;;;21.20;43.10;;;;;;5074264;28;20125;-16